Time,TemperatureF,DewpointF,PressureIn,WindDirection,WindDirectionDegrees,WindSpeedMPH,WindSpeedGustMPH,Humidity,HourlyPrecipIn,Conditions,Clouds,dailyrainin,SoftwareType,DateUTC
2013-01-09 00:01:00,41.9,30.0,30.13,SW,225,4.0,11.0,63,0.00,,,0.00,weatherlink.com 1.10,2013-01-09 06:01:00,
2013-01-09 00:16:00,42.9,30.0,30.14,South,188,5.0,12.0,60,0.00,,,0.00,weatherlink.com 1.10,2013-01-09 06:16:00,
2013-01-09 00:31:00,43.1,30.0,30.15,SSW,208,4.0,13.0,60,0.00,,,0.00,weatherlink.com 1.10,2013-01-09 06:31:00,
2013-01-09 00:46:00,43.6,31.0,30.15,SW,216,4.0,14.0,61,0.00,,,0.00,weatherlink.com 1.10,2013-01-09 06:46:00,
2013-01-09 01:01:00,44.1,32.0,30.15,SSW,211,6.0,11.0,63,0.00,,,0.00,weatherlink.com 1.10,2013-01-09 07:01:00,
2013-01-09 01:16:00,44.3,33.0,30.16,SW,225,7.0,14.0,64,0.00,,,0.00,weatherlink.com 1.10,2013-01-09 07:16:00,
2013-01-09 01:31:00,44.3,33.0,30.16,WSW,254,2.0,13.0,65,0.00,,,0.00,weatherlink.com 1.10,2013-01-09 07:31:00,
2013-01-09 01:46:00,43.5,33.0,30.17,West,275,6.0,13.0,67,0.00,,,0.00,weatherlink.com 1.10,2013-01-09 07:46:00,
2013-01-09 02:01:00,42.7,33.0,30.18,West,265,5.0,15.0,68,0.00,,,0.00,weatherlink.com 1.10,2013-01-09 08:01:00,
2013-01-09 02:16:00,42.0,33.0,30.18,West,273,5.0,14.0,70,0.00,,,0.00,weatherlink.com 1.10,2013-01-09 08:16:00,
2013-01-09 02:31:00,42.2,33.0,30.20,West,259,9.0,16.0,71,0.00,,,0.00,weatherlink.com 1.10,2013-01-09 08:31:00,
2013-01-09 02:46:00,41.7,33.0,30.20,WSW,253,10.0,13.0,72,0.00,,,0.00,weatherlink.com 1.10,2013-01-09 08:46:00,
2013-01-09 03:02:00,41.4,33.0,30.21,WNW,282,6.0,14.0,73,0.00,,,0.00,weatherlink.com 1.10,2013-01-09 09:02:00,
2013-01-09 03:17:00,40.7,33.0,30.21,WSW,251,6.0,12.0,75,0.00,,,0.00,weatherlink.com 1.10,2013-01-09 09:17:00,
2013-01-09 03:32:00,40.5,34.0,30.22,West,263,6.0,13.0,76,0.00,,,0.00,weatherlink.com 1.10,2013-01-09 09:32:00,
2013-01-09 03:47:00,40.2,33.0,30.23,West,262,7.0,14.0,76,0.00,,,0.00,weatherlink.com 1.10,2013-01-09 09:47:00,
2013-01-09 04:02:00,39.7,33.0,30.23,West,263,6.0,11.0,77,0.00,,,0.00,weatherlink.com 1.10,2013-01-09 10:02:00,
2013-01-09 04:17:00,39.1,33.0,30.23,WSW,253,8.0,11.0,78,0.00,,,0.00,weatherlink.com 1.10,2013-01-09 10:17:00,
2013-01-09 04:32:00,38.8,33.0,30.24,WSW,241,7.0,12.0,79,0.00,,,0.00,weatherlink.com 1.10,2013-01-09 10:32:00,
2013-01-09 04:47:00,38.2,33.0,30.24,WSW,239,4.0,10.0,80,0.00,,,0.00,weatherlink.com 1.10,2013-01-09 10:47:00,
2013-01-09 05:02:00,37.9,32.0,30.25,West,272,4.0,10.0,80,0.00,,,0.00,weatherlink.com 1.10,2013-01-09 11:02:00,
2013-01-09 05:17:00,37.6,32.0,30.26,West,267,7.0,7.0,81,0.00,,,0.00,weatherlink.com 1.10,2013-01-09 11:17:00,
2013-01-09 05:32:00,37.1,32.0,30.26,WSW,254,4.0,7.0,81,0.00,,,0.00,weatherlink.com 1.10,2013-01-09 11:32:00,
2013-01-09 05:47:00,36.5,32.0,30.27,WSW,253,1.0,6.0,83,0.00,,,0.00,weatherlink.com 1.10,2013-01-09 11:47:00,
2013-01-09 06:02:00,36.5,32.0,30.27,WSW,254,0.0,6.0,82,0.00,,,0.00,weatherlink.com 1.10,2013-01-09 12:02:00,
2013-01-09 06:17:00,36.3,32.0,30.28,SW,227,5.0,8.0,83,0.00,,,0.00,weatherlink.com 1.10,2013-01-09 12:17:00,
2013-01-09 06:32:00,36.1,31.0,30.29,West,264,4.0,8.0,83,0.00,,,0.00,weatherlink.com 1.10,2013-01-09 12:32:00,
2013-01-09 06:47:00,35.6,31.0,30.30,WSW,244,1.0,6.0,84,0.00,,,0.00,weatherlink.com 1.10,2013-01-09 12:47:00,
2013-01-09 07:02:00,35.2,31.0,30.30,West,273,2.0,4.0,84,0.00,,,0.00,weatherlink.com 1.10,2013-01-09 13:02:00,
2013-01-09 07:17:00,35.2,31.0,30.32,West,266,1.0,5.0,84,0.00,,,0.00,weatherlink.com 1.10,2013-01-09 13:17:00,
2013-01-09 07:32:00,34.9,31.0,30.32,West,267,1.0,4.0,84,0.00,,,0.00,weatherlink.com 1.10,2013-01-09 13:32:00,
2013-01-09 07:47:00,34.8,31.0,30.34,SW,231,0.0,3.0,85,0.00,,,0.00,weatherlink.com 1.10,2013-01-09 13:47:00,
2013-01-09 08:02:00,35.1,31.0,30.34,SW,226,1.0,3.0,85,0.00,,,0.00,weatherlink.com 1.10,2013-01-09 14:02:00,
2013-01-09 08:17:00,36.2,32.0,30.36,WSW,258,3.0,6.0,83,0.00,,,0.00,weatherlink.com 1.10,2013-01-09 14:17:00,
2013-01-09 08:32:00,37.4,32.0,30.36,West,262,5.0,9.0,81,0.00,,,0.00,weatherlink.com 1.10,2013-01-09 14:32:00,
2013-01-09 08:47:00,38.0,32.0,30.36,WNW,292,5.0,12.0,79,0.00,,,0.00,weatherlink.com 1.10,2013-01-09 14:47:00,
2013-01-09 09:02:00,38.8,33.0,30.37,WNW,286,2.0,9.0,79,0.00,,,0.00,weatherlink.com 1.10,2013-01-09 15:02:00,
2013-01-09 09:18:00,39.7,33.0,30.38,WSW,250,6.0,8.0,78,0.00,,,0.00,weatherlink.com 1.10,2013-01-09 15:18:00,
2013-01-09 09:33:00,40.1,33.0,30.39,West,276,4.0,7.0,77,0.00,,,0.00,weatherlink.com 1.10,2013-01-09 15:33:00,
2013-01-09 09:48:00,40.7,33.0,30.39,WNW,291,5.0,10.0,75,0.00,,,0.00,weatherlink.com 1.10,2013-01-09 15:48:00,
2013-01-09 10:03:00,41.2,34.0,30.39,WNW,298,3.0,10.0,74,0.00,,,0.00,weatherlink.com 1.10,2013-01-09 16:03:00,
2013-01-09 10:18:00,42.1,34.0,30.40,WNW,289,6.0,8.0,73,0.00,,,0.00,weatherlink.com 1.10,2013-01-09 16:18:00,
2013-01-09 10:33:00,43.0,34.0,30.41,WNW,292,7.0,10.0,71,0.00,,,0.00,weatherlink.com 1.10,2013-01-09 16:33:00,
2013-01-09 10:48:00,44.0,35.0,30.42,West,271,5.0,10.0,70,0.00,,,0.00,weatherlink.com 1.10,2013-01-09 16:48:00,
2013-01-09 11:03:00,44.6,35.0,30.42,WNW,295,8.0,11.0,68,0.00,,,0.00,weatherlink.com 1.10,2013-01-09 17:03:00,
2013-01-09 11:18:00,45.2,35.0,30.40,NW,324,6.0,11.0,67,0.00,,,0.00,weatherlink.com 1.10,2013-01-09 17:18:00,
2013-01-09 11:33:00,46.2,35.0,30.41,WNW,293,8.0,12.0,65,0.00,,,0.00,weatherlink.com 1.10,2013-01-09 17:33:00,
2013-01-09 11:48:00,46.7,35.0,30.41,NW,311,6.0,10.0,63,0.00,,,0.00,weatherlink.com 1.10,2013-01-09 17:48:00,
2013-01-09 12:03:00,46.9,34.0,30.41,WNW,301,6.0,12.0,62,0.00,,,0.00,weatherlink.com 1.10,2013-01-09 18:03:00,
2013-01-09 12:18:00,47.0,34.0,30.40,NW,319,10.0,14.0,60,0.00,,,0.00,weatherlink.com 1.10,2013-01-09 18:18:00,
2013-01-09 12:33:00,46.9,35.0,30.40,NNW,329,4.0,12.0,63,0.00,,,0.00,weatherlink.com 1.10,2013-01-09 18:33:00,
2013-01-09 12:48:00,47.0,34.0,30.40,WNW,296,8.0,13.0,62,0.00,,,0.00,weatherlink.com 1.10,2013-01-09 18:48:00,
2013-01-09 13:03:00,47.9,35.0,30.40,NNW,333,2.0,10.0,61,0.00,,,0.00,weatherlink.com 1.10,2013-01-09 19:03:00,
2013-01-09 13:18:00,48.5,34.0,30.41,NW,325,9.0,11.0,58,0.00,,,0.00,weatherlink.com 1.10,2013-01-09 19:18:00,
2013-01-09 13:33:00,48.6,35.0,30.41,NW,315,2.0,9.0,60,0.00,,,0.00,weatherlink.com 1.10,2013-01-09 19:33:00,
2013-01-09 13:48:00,49.1,36.0,30.41,NW,312,6.0,8.0,60,0.00,,,0.00,weatherlink.com 1.10,2013-01-09 19:48:00,
2013-01-09 14:03:00,49.0,35.0,30.42,NNW,343,4.0,10.0,58,0.00,,,0.00,weatherlink.com 1.10,2013-01-09 20:03:00,
2013-01-09 14:18:00,48.5,35.0,30.42,North,10,5.0,11.0,59,0.00,,,0.00,weatherlink.com 1.10,2013-01-09 20:18:00,
2013-01-09 14:33:00,48.0,34.0,30.43,NW,318,7.0,12.0,59,0.00,,,0.00,weatherlink.com 1.10,2013-01-09 20:33:00,
2013-01-09 14:48:00,48.5,35.0,30.43,WNW,303,6.0,10.0,59,0.00,,,0.00,weatherlink.com 1.10,2013-01-09 20:48:00,
2013-01-09 15:03:00,48.5,34.0,30.43,WNW,300,5.0,12.0,57,0.00,,,0.00,weatherlink.com 1.10,2013-01-09 21:03:00,
2013-01-09 15:18:00,48.3,33.0,30.44,North,355,4.0,10.0,55,0.00,,,0.00,weatherlink.com 1.10,2013-01-09 21:18:00,
2013-01-09 15:33:00,48.1,33.0,30.45,NNW,342,4.0,9.0,56,0.00,,,0.00,weatherlink.com 1.10,2013-01-09 21:33:00,
2013-01-09 15:48:00,47.5,32.0,30.45,NE,53,3.0,8.0,56,0.00,,,0.00,weatherlink.com 1.10,2013-01-09 21:48:00,
2013-01-09 16:03:00,46.6,32.0,30.45,NNW,343,3.0,8.0,57,0.00,,,0.00,weatherlink.com 1.10,2013-01-09 22:03:00,
2013-01-09 16:18:00,45.6,33.0,30.46,NNW,342,3.0,6.0,61,0.00,,,0.00,weatherlink.com 1.10,2013-01-09 22:18:00,
2013-01-09 16:33:00,44.5,33.0,30.46,NNW,348,0.0,3.0,64,0.00,,,0.00,weatherlink.com 1.10,2013-01-09 22:33:00,
2013-01-09 16:48:00,44.1,33.0,30.47,NNW,348,0.0,2.0,64,0.00,,,0.00,weatherlink.com 1.10,2013-01-09 22:48:00,
2013-01-09 17:03:00,43.0,32.0,30.46,NNW,348,0.0,0.0,66,0.00,,,0.00,weatherlink.com 1.10,2013-01-09 23:03:00,
2013-01-09 17:18:00,42.0,32.0,30.47,NNW,348,0.0,0.0,68,0.00,,,0.00,weatherlink.com 1.10,2013-01-09 23:18:00,
2013-01-09 17:33:00,41.1,32.0,30.47,NNW,348,0.0,0.0,69,0.00,,,0.00,weatherlink.com 1.10,2013-01-09 23:33:00,
2013-01-09 17:48:00,40.4,32.0,30.48,NNW,348,0.0,0.0,71,0.00,,,0.00,weatherlink.com 1.10,2013-01-09 23:48:00,
2013-01-09 18:03:00,39.8,32.0,30.48,NNW,348,0.0,0.0,73,0.00,,,0.00,weatherlink.com 1.10,2013-01-10 00:03:00,
2013-01-09 18:18:00,39.2,32.0,30.48,NNW,348,0.0,0.0,74,0.00,,,0.00,weatherlink.com 1.10,2013-01-10 00:18:00,
2013-01-09 18:34:00,38.7,32.0,30.48,NNW,348,0.0,0.0,77,0.00,,,0.00,weatherlink.com 1.10,2013-01-10 00:34:00,
2013-01-09 18:49:00,38.5,32.0,30.48,NNW,348,0.0,0.0,77,0.00,,,0.00,weatherlink.com 1.10,2013-01-10 00:49:00,
2013-01-09 19:04:00,38.4,32.0,30.49,NNW,348,0.0,0.0,77,0.00,,,0.00,weatherlink.com 1.10,2013-01-10 01:04:00,
2013-01-09 19:19:00,37.8,31.0,30.49,NNW,348,0.0,0.0,77,0.00,,,0.00,weatherlink.com 1.10,2013-01-10 01:19:00,
2013-01-09 19:34:00,38.1,31.0,30.50,NNW,348,0.0,0.0,76,0.00,,,0.00,weatherlink.com 1.10,2013-01-10 01:34:00,
2013-01-09 19:49:00,38.9,31.0,30.50,NNW,348,0.0,0.0,74,0.00,,,0.00,weatherlink.com 1.10,2013-01-10 01:49:00,
2013-01-09 20:04:00,38.8,31.0,30.50,NNW,348,0.0,0.0,74,0.00,,,0.00,weatherlink.com 1.10,2013-01-10 02:04:00,
2013-01-09 20:19:00,38.5,31.0,30.50,NNW,348,0.0,0.0,74,0.00,,,0.00,weatherlink.com 1.10,2013-01-10 02:19:00,
2013-01-09 20:34:00,38.0,31.0,30.50,NNW,348,0.0,0.0,75,0.00,,,0.00,weatherlink.com 1.10,2013-01-10 02:34:00,
2013-01-09 20:49:00,37.7,30.0,30.50,NNW,348,0.0,0.0,75,0.00,,,0.00,weatherlink.com 1.10,2013-01-10 02:49:00,
2013-01-09 21:04:00,38.2,31.0,30.51,NNW,348,0.0,0.0,74,0.00,,,0.00,weatherlink.com 1.10,2013-01-10 03:04:00,
2013-01-09 21:19:00,38.6,31.0,30.51,NNW,348,0.0,0.0,73,0.00,,,0.00,weatherlink.com 1.10,2013-01-10 03:19:00,
2013-01-09 21:34:00,38.2,30.0,30.52,NNW,348,0.0,0.0,73,0.00,,,0.00,weatherlink.com 1.10,2013-01-10 03:34:00,
2013-01-09 21:49:00,38.4,30.0,30.51,NNW,348,0.0,0.0,73,0.00,,,0.00,weatherlink.com 1.10,2013-01-10 03:49:00,
2013-01-09 22:04:00,38.6,30.0,30.52,NNW,348,2.0,2.0,71,0.00,,,0.00,weatherlink.com 1.10,2013-01-10 04:04:00,
2013-01-09 22:49:00,35.5,29.0,30.52,SSE,164,1.0,3.0,78,0.00,,,0.00,weatherlink.com 1.10,2013-01-10 04:49:00,
2013-01-09 23:04:00,34.7,29.0,30.51,SSE,164,0.0,0.0,79,0.00,,,0.00,weatherlink.com 1.10,2013-01-10 05:04:00,
2013-01-09 23:19:00,34.0,29.0,30.50,SSE,164,0.0,0.0,81,0.00,,,0.00,weatherlink.com 1.10,2013-01-10 05:19:00,
2013-01-09 23:51:00,31.9,27.0,30.48,North,9,4.0,5.0,83,0.00,,,0.00,weatherlink.com 1.10,2013-01-10 05:51:00,